Pinar del Rio, Cuba
Current Conditions -  °F | °C
As of 8:55 AM on Friday 24 Oct 2014 (Local Time) from MUHA Reporting Station
Broken Clouds Broken Clouds  
Wind Chill: 75°   Ceiling: 6600
Heat Index: 75°   Visibility: 6mi
Dew Point: 72°   Wind: 1mph
Humidity: 89%   Direction: NA
Pressure: 29.85"   Gusts: NA
Location:  22.41°N, 83.7°W
Report Text: MUHA 241255Z VRB01KT 9000 SCT020 BKN066 24/22 Q1011
Loading
Personal Weather Stations






























Interactive Weather Map
Tropical Storm Tracking
New forecast layout! Learn more

10-Day Weather Forecast

Advertisements
Track Severe Weather on mobile